sensor_id;sensor_type;location;lat;lon;timestamp;pressure;altitude;pressure_sealevel;temperature;humidity
13705;BME280;6924;52.122;9.952;2022-09-09T00:02:15;99904.63;;;14.71;100.00
13705;BME280;6924;52.122;9.952;2022-09-09T00:04:48;99909.03;;;14.69;100.00
13705;BME280;6924;52.122;9.952;2022-09-09T00:07:26;99910.66;;;14.70;100.00
13705;BME280;6924;52.122;9.952;2022-09-09T00:10:03;99903.56;;;14.63;100.00
13705;BME280;6924;52.122;9.952;2022-09-09T00:12:36;99901.09;;;14.62;100.00
13705;BME280;6924;52.122;9.952;2022-09-09T00:15:10;99900.72;;;14.63;100.00
13705;BME280;6924;52.122;9.952;2022-09-09T00:17:47;99899.41;;;14.61;100.00
13705;BME280;6924;52.122;9.952;2022-09-09T00:20:23;99896.91;;;14.59;100.00
13705;BME280;6924;52.122;9.952;2022-09-09T00:22:57;99905.09;;;14.61;100.00
13705;BME280;6924;52.122;9.952;2022-09-09T00:25:30;99896.09;;;14.59;100.00
13705;BME280;6924;52.122;9.952;2022-09-09T00:28:00;99905.47;;;14.59;100.00
13705;BME280;6924;52.122;9.952;2022-09-09T00:30:32;99896.00;;;14.55;100.00
13705;BME280;6924;52.122;9.952;2022-09-09T00:33:10;99892.88;;;14.48;100.00
13705;BME280;6924;52.122;9.952;2022-09-09T00:35:43;99899.84;;;14.51;100.00
13705;BME280;6924;52.122;9.952;2022-09-09T00:38:14;99898.22;;;14.50;100.00
13705;BME280;6924;52.122;9.952;2022-09-09T00:40:46;99896.44;;;14.45;100.00
13705;BME280;6924;52.122;9.952;2022-09-09T00:43:25;99893.13;;;14.43;100.00
13705;BME280;6924;52.122;9.952;2022-09-09T00:48:49;99893.72;;;14.36;99.71
13705;BME280;6924;52.122;9.952;2022-09-09T00:51:25;99898.00;;;14.30;99.87
13705;BME280;6924;52.122;9.952;2022-09-09T00:54:09;99888.03;;;14.24;100.00
13705;BME280;6924;52.122;9.952;2022-09-09T00:56:44;99891.34;;;14.26;99.86
13705;BME280;6924;52.122;9.952;2022-09-09T00:59:26;99895.88;;;14.27;99.32
13705;BME280;6924;52.122;9.952;2022-09-09T01:01:54;99894.91;;;14.23;99.67
13705;BME280;6924;52.122;9.952;2022-09-09T01:04:28;99900.13;;;14.21;99.56
13705;BME280;6924;52.122;9.952;2022-09-09T01:07:01;99890.19;;;14.15;99.89
13705;BME280;6924;52.122;9.952;2022-09-09T01:09:33;99900.13;;;14.09;99.75
13705;BME280;6924;52.122;9.952;2022-09-09T01:12:09;99891.00;;;14.03;100.00
13705;BME280;6924;52.122;9.952;2022-09-09T01:14:42;99893.84;;;14.03;100.00
13705;BME280;6924;52.122;9.952;2022-09-09T01:17:13;99895.50;;;14.04;99.84
13705;BME280;6924;52.122;9.952;2022-09-09T01:19:53;99895.03;;;14.02;99.48
13705;BME280;6924;52.122;9.952;2022-09-09T01:22:28;99886.50;;;14.02;99.44
13705;BME280;6924;52.122;9.952;2022-09-09T01:28:09;99886.00;;;14.00;99.74
13705;BME280;6924;52.122;9.952;2022-09-09T01:30:40;99889.72;;;14.00;99.34
13705;BME280;6924;52.122;9.952;2022-09-09T01:33:11;99888.50;;;14.01;99.72
13705;BME280;6924;52.122;9.952;2022-09-09T01:35:43;99888.03;;;13.99;99.73
13705;BME280;6924;52.122;9.952;2022-09-09T01:38:12;99884.97;;;13.92;100.00
13705;BME280;6924;52.122;9.952;2022-09-09T01:40:39;99894.69;;;13.91;100.00
13705;BME280;6924;52.122;9.952;2022-09-09T01:43:08;99899.41;;;13.87;100.00
13705;BME280;6924;52.122;9.952;2022-09-09T01:45:35;99893.72;;;13.87;100.00
13705;BME280;6924;52.122;9.952;2022-09-09T01:48:02;99895.38;;;13.88;100.00
13705;BME280;6924;52.122;9.952;2022-09-09T01:50:29;99886.75;;;13.84;100.00
13705;BME280;6924;52.122;9.952;2022-09-09T01:52:58;99886.75;;;13.84;100.00
13705;BME280;6924;52.122;9.952;2022-09-09T01:55:29;99885.53;;;13.85;100.00
13705;BME280;6924;52.122;9.952;2022-09-09T01:58:08;99879.03;;;13.85;100.00
13705;BME280;6924;52.122;9.952;2022-09-09T02:00:42;99888.88;;;13.88;100.00
13705;BME280;6924;52.122;9.952;2022-09-09T02:03:19;99895.72;;;13.87;100.00
13705;BME280;6924;52.122;9.952;2022-09-09T02:05:52;99892.06;;;13.86;100.00
13705;BME280;6924;52.122;9.952;2022-09-09T02:08:25;99893.97;;;13.94;100.00
13705;BME280;6924;52.122;9.952;2022-09-09T02:10:56;99902.97;;;13.96;100.00
13705;BME280;6924;52.122;9.952;2022-09-09T02:13:28;99894.44;;;13.96;100.00
13705;BME280;6924;52.122;9.952;2022-09-09T02:15:57;99888.16;;;14.03;100.00
13705;BME280;6924;52.122;9.952;2022-09-09T02:18:28;99895.63;;;14.08;100.00
13705;BME280;6924;52.122;9.952;2022-09-09T02:20:58;99897.28;;;14.09;100.00
13705;BME280;6924;52.122;9.952;2022-09-09T02:23:26;99897.06;;;14.14;100.00
13705;BME280;6924;52.122;9.952;2022-09-09T02:25:54;99891.84;;;14.16;100.00
13705;BME280;6924;52.122;9.952;2022-09-09T02:28:25;99882.94;;;14.17;100.00
13705;BME280;6924;52.122;9.952;2022-09-09T02:30:54;99886.25;;;14.19;100.00
13705;BME280;6924;52.122;9.952;2022-09-09T02:33:23;99872.28;;;14.26;100.00
13705;BME280;6924;52.122;9.952;2022-09-09T02:35:51;99878.81;;;14.27;100.00
13705;BME280;6924;52.122;9.952;2022-09-09T02:38:20;99874.41;;;14.30;100.00
13705;BME280;6924;52.122;9.952;2022-09-09T02:40:47;99867.66;;;14.34;100.00
13705;BME280;6924;52.122;9.952;2022-09-09T02:43:14;99870.50;;;14.34;100.00
13705;BME280;6924;52.122;9.952;2022-09-09T02:45:44;99863.25;;;14.37;100.00
13705;BME280;6924;52.122;9.952;2022-09-09T02:48:21;99865.41;;;14.40;100.00
13705;BME280;6924;52.122;9.952;2022-09-09T02:50:56;99870.72;;;14.41;100.00
13705;BME280;6924;52.122;9.952;2022-09-09T02:53:32;99880.91;;;14.42;100.00
13705;BME280;6924;52.122;9.952;2022-09-09T02:56:08;99881.41;;;14.44;100.00
13705;BME280;6924;52.122;9.952;2022-09-09T02:58:36;99881.88;;;14.46;100.00
13705;BME280;6924;52.122;9.952;2022-09-09T03:01:04;99879.72;;;14.43;100.00
13705;BME280;6924;52.122;9.952;2022-09-09T03:03:32;99880.53;;;14.44;100.00
13705;BME280;6924;52.122;9.952;2022-09-09T03:05:59;99884.00;;;14.50;100.00
13705;BME280;6924;52.122;9.952;2022-09-09T03:08:26;99873.09;;;14.52;100.00
13705;BME280;6924;52.122;9.952;2022-09-09T03:10:54;99880.06;;;14.54;100.00
13705;BME280;6924;52.122;9.952;2022-09-09T03:13:21;99882.59;;;14.56;100.00
13705;BME280;6924;52.122;9.952;2022-09-09T03:15:47;99877.38;;;14.58;100.00
13705;BME280;6924;52.122;9.952;2022-09-09T03:18:14;99891.13;;;14.56;100.00
13705;BME280;6924;52.122;9.952;2022-09-09T03:20:43;99891.22;;;14.59;100.00
13705;BME280;6924;52.122;9.952;2022-09-09T03:23:09;99879.03;;;14.59;100.00
13705;BME280;6924;52.122;9.952;2022-09-09T03:25:36;99874.16;;;14.59;100.00
13705;BME280;6924;52.122;9.952;2022-09-09T03:28:03;99875.81;;;14.60;100.00
13705;BME280;6924;52.122;9.952;2022-09-09T03:30:30;99872.97;;;14.60;100.00
13705;BME280;6924;52.122;9.952;2022-09-09T03:32:56;99875.94;;;14.64;100.00
13705;BME280;6924;52.122;9.952;2022-09-09T03:35:23;99871.91;;;14.65;100.00
13705;BME280;6924;52.122;9.952;2022-09-09T03:37:51;99875.94;;;14.64;100.00
13705;BME280;6924;52.122;9.952;2022-09-09T03:40:18;99875.56;;;14.65;100.00
13705;BME280;6924;52.122;9.952;2022-09-09T03:42:44;99868.69;;;14.66;100.00
13705;BME280;6924;52.122;9.952;2022-09-09T03:45:11;99872.03;;;14.69;100.00
13705;BME280;6924;52.122;9.952;2022-09-09T03:47:37;99871.63;;;14.70;100.00
13705;BME280;6924;52.122;9.952;2022-09-09T03:50:04;99875.78;;;14.73;100.00
13705;BME280;6924;52.122;9.952;2022-09-09T03:52:34;99866.06;;;14.74;100.00
13705;BME280;6924;52.122;9.952;2022-09-09T03:55:03;99862.00;;;14.75;100.00
13705;BME280;6924;52.122;9.952;2022-09-09T03:57:29;99862.50;;;14.77;100.00
13705;BME280;6924;52.122;9.952;2022-09-09T03:59:57;99860.50;;;14.77;100.00
13705;BME280;6924;52.122;9.952;2022-09-09T04:02:26;99868.28;;;14.80;100.00
13705;BME280;6924;52.122;9.952;2022-09-09T04:04:52;99874.47;;;14.82;100.00
13705;BME280;6924;52.122;9.952;2022-09-09T04:07:18;99873.53;;;14.78;100.00
13705;BME280;6924;52.122;9.952;2022-09-09T04:09:45;99876.97;;;14.84;100.00
13705;BME280;6924;52.122;9.952;2022-09-09T04:12:13;99875.03;;;14.88;100.00
13705;BME280;6924;52.122;9.952;2022-09-09T04:14:39;99878.81;;;14.92;100.00
13705;BME280;6924;52.122;9.952;2022-09-09T04:17:06;99883.34;;;14.93;100.00
13705;BME280;6924;52.122;9.952;2022-09-09T04:19:32;99878.94;;;14.96;100.00
13705;BME280;6924;52.122;9.952;2022-09-09T04:21:59;99886.72;;;14.99;100.00
13705;BME280;6924;52.122;9.952;2022-09-09T04:24:26;99883.41;;;14.97;100.00
13705;BME280;6924;52.122;9.952;2022-09-09T04:26:54;99889.34;;;15.04;100.00
13705;BME280;6924;52.122;9.952;2022-09-09T04:29:22;99886.97;;;15.06;100.00
13705;BME280;6924;52.122;9.952;2022-09-09T04:31:48;99893.13;;;15.08;100.00
13705;BME280;6924;52.122;9.952;2022-09-09T04:34:14;99889.44;;;15.07;100.00
13705;BME280;6924;52.122;9.952;2022-09-09T04:36:41;99891.94;;;15.09;100.00
13705;BME280;6924;52.122;9.952;2022-09-09T04:39:07;99896.88;;;15.12;100.00
13705;BME280;6924;52.122;9.952;2022-09-09T04:41:34;99894.03;;;15.12;100.00
13705;BME280;6924;52.122;9.952;2022-09-09T04:44:01;99894.16;;;15.16;100.00
13705;BME280;6924;52.122;9.952;2022-09-09T04:46:29;99892.94;;;15.17;100.00
13705;BME280;6924;52.122;9.952;2022-09-09T04:48:55;99901.16;;;15.18;100.00
13705;BME280;6924;52.122;9.952;2022-09-09T04:51:22;99890.22;;;15.20;100.00
13705;BME280;6924;52.122;9.952;2022-09-09T04:53:49;99901.25;;;15.22;100.00
13705;BME280;6924;52.122;9.952;2022-09-09T04:56:17;99902.53;;;15.24;100.00
13705;BME280;6924;52.122;9.952;2022-09-09T04:58:43;99901.00;;;15.27;100.00
13705;BME280;6924;52.122;9.952;2022-09-09T05:01:12;99912.75;;;15.25;100.00
13705;BME280;6924;52.122;9.952;2022-09-09T05:03:40;99901.00;;;15.27;100.00
13705;BME280;6924;52.122;9.952;2022-09-09T05:06:08;99898.50;;;15.25;100.00
13705;BME280;6924;52.122;9.952;2022-09-09T05:08:36;99904.09;;;15.22;100.00
13705;BME280;6924;52.122;9.952;2022-09-09T05:11:03;99900.44;;;15.21;100.00
13705;BME280;6924;52.122;9.952;2022-09-09T05:13:30;99894.34;;;15.23;100.00
13705;BME280;6924;52.122;9.952;2022-09-09T05:15:57;99904.19;;;15.25;100.00
13705;BME280;6924;52.122;9.952;2022-09-09T05:18:24;99907.03;;;15.25;100.00
13705;BME280;6924;52.122;9.952;2022-09-09T05:20:52;99905.41;;;15.24;100.00
13705;BME280;6924;52.122;9.952;2022-09-09T05:23:18;99901.00;;;15.27;100.00
13705;BME280;6924;52.122;9.952;2022-09-09T05:25:54;99901.81;;;15.27;100.00
13705;BME280;6924;52.122;9.952;2022-09-09T05:28:22;99911.56;;;15.26;100.00
13705;BME280;6924;52.122;9.952;2022-09-09T05:30:55;99910.75;;;15.26;100.00
13705;BME280;6924;52.122;9.952;2022-09-09T05:33:21;99905.13;;;15.29;100.00
13705;BME280;6924;52.122;9.952;2022-09-09T05:35:56;99910.94;;;15.33;100.00
13705;BME280;6924;52.122;9.952;2022-09-09T05:38:23;99911.75;;;15.34;100.00
13705;BME280;6924;52.122;9.952;2022-09-09T05:40:50;99914.25;;;15.35;100.00
13705;BME280;6924;52.122;9.952;2022-09-09T05:43:17;99918.41;;;15.38;100.00
13705;BME280;6924;52.122;9.952;2022-09-09T05:45:43;99929.06;;;15.41;100.00
13705;BME280;6924;52.122;9.952;2022-09-09T05:48:13;99924.22;;;15.41;100.00
13705;BME280;6924;52.122;9.952;2022-09-09T05:50:40;99926.59;;;15.39;100.00
13705;BME280;6924;52.122;9.952;2022-09-09T05:53:08;99930.72;;;15.42;100.00
13705;BME280;6924;52.122;9.952;2022-09-09T05:55:35;99932.03;;;15.44;100.00
13705;BME280;6924;52.122;9.952;2022-09-09T05:58:01;99939.16;;;15.38;100.00
13705;BME280;6924;52.122;9.952;2022-09-09T06:00:28;99929.91;;;15.41;100.00
13705;BME280;6924;52.122;9.952;2022-09-09T06:02:54;99939.75;;;15.44;100.00
13705;BME280;6924;52.122;9.952;2022-09-09T06:05:21;99939.00;;;15.47;99.70
13705;BME280;6924;52.122;9.952;2022-09-09T06:07:52;99949.69;;;15.50;100.00
13705;BME280;6924;52.122;9.952;2022-09-09T06:10:20;99939.94;;;15.51;99.99
13705;BME280;6924;52.122;9.952;2022-09-09T06:12:46;99948.84;;;15.49;99.77
13705;BME280;6924;52.122;9.952;2022-09-09T06:15:13;99947.31;;;15.52;100.00
13705;BME280;6924;52.122;9.952;2022-09-09T06:17:39;99946.22;;;15.57;100.00
13705;BME280;6924;52.122;9.952;2022-09-09T06:20:07;99938.56;;;15.61;100.00
13705;BME280;6924;52.122;9.952;2022-09-09T06:22:35;99945.31;;;15.68;100.00
13705;BME280;6924;52.122;9.952;2022-09-09T06:25:01;99942.63;;;15.72;100.00
13705;BME280;6924;52.122;9.952;2022-09-09T06:27:29;99939.47;;;15.77;100.00
13705;BME280;6924;52.122;9.952;2022-09-09T06:29:56;99926.88;;;15.78;100.00
13705;BME280;6924;52.122;9.952;2022-09-09T06:32:22;99922.84;;;15.79;99.97
13705;BME280;6924;52.122;9.952;2022-09-09T06:34:48;99922.03;;;15.79;99.90
13705;BME280;6924;52.122;9.952;2022-09-09T06:37:15;99907.94;;;15.86;99.20
13705;BME280;6924;52.122;9.952;2022-09-09T06:39:41;99911.25;;;15.88;99.69
13705;BME280;6924;52.122;9.952;2022-09-09T06:42:08;99910.22;;;15.96;100.00
13705;BME280;6924;52.122;9.952;2022-09-09T06:44:36;99912.38;;;15.99;100.00
13705;BME280;6924;52.122;9.952;2022-09-09T06:47:02;99904.34;;;16.05;100.00
13705;BME280;6924;52.122;9.952;2022-09-09T06:49:29;99911.91;;;16.13;100.00
13705;BME280;6924;52.122;9.952;2022-09-09T06:51:55;99904.38;;;16.21;100.00
13705;BME280;6924;52.122;9.952;2022-09-09T06:54:22;99903.06;;;16.18;99.45
13705;BME280;6924;52.122;9.952;2022-09-09T06:56:48;99917.72;;;16.17;98.40
13705;BME280;6924;52.122;9.952;2022-09-09T06:59:15;99919.19;;;16.10;97.86
13705;BME280;6924;52.122;9.952;2022-09-09T07:01:43;99928.72;;;16.18;97.55
13705;BME280;6924;52.122;9.952;2022-09-09T07:04:10;99931.22;;;16.20;96.99
13705;BME280;6924;52.122;9.952;2022-09-09T07:06:40;99925.88;;;16.18;97.92
13705;BME280;6924;52.122;9.952;2022-09-09T07:09:09;99936.28;;;16.26;96.42
13705;BME280;6924;52.122;9.952;2022-09-09T07:11:38;99925.25;;;16.25;96.69
13705;BME280;6924;52.122;9.952;2022-09-09T07:14:06;99922.47;;;16.28;98.07
13705;BME280;6924;52.122;9.952;2022-09-09T07:16:33;99934.06;;;16.36;97.72
13705;BME280;6924;52.122;9.952;2022-09-09T07:19:03;99932.06;;;16.36;99.18
13705;BME280;6924;52.122;9.952;2022-09-09T07:21:32;99929.38;;;16.43;99.16
13705;BME280;6924;52.122;9.952;2022-09-09T07:23:58;99934.34;;;16.46;98.52
13705;BME280;6924;52.122;9.952;2022-09-09T07:26:27;99935.25;;;16.50;97.91
13705;BME280;6924;52.122;9.952;2022-09-09T07:28:54;99939.50;;;16.57;97.27
13705;BME280;6924;52.122;9.952;2022-09-09T07:31:23;99937.09;;;16.59;97.12
13705;BME280;6924;52.122;9.952;2022-09-09T07:33:50;99929.91;;;16.65;97.16
13705;BME280;6924;52.122;9.952;2022-09-09T07:36:20;99930.88;;;16.72;95.82
13705;BME280;6924;52.122;9.952;2022-09-09T07:38:50;99934.28;;;16.78;95.07
13705;BME280;6924;52.122;9.952;2022-09-09T07:41:20;99925.81;;;16.82;95.22
13705;BME280;6924;52.122;9.952;2022-09-09T07:43:48;99921.13;;;16.89;94.66
13705;BME280;6924;52.122;9.952;2022-09-09T07:46:16;99929.47;;;16.98;95.00
13705;BME280;6924;52.122;9.952;2022-09-09T07:48:45;99924.38;;;17.07;95.87
13705;BME280;6924;52.122;9.952;2022-09-09T07:51:14;99931.81;;;17.12;93.93
13705;BME280;6924;52.122;9.952;2022-09-09T07:53:45;99934.00;;;17.19;92.69
13705;BME280;6924;52.122;9.952;2022-09-09T07:56:14;99934.22;;;17.10;92.13
13705;BME280;6924;52.122;9.952;2022-09-09T07:58:44;99936.63;;;17.08;91.99
13705;BME280;6924;52.122;9.952;2022-09-09T08:01:12;99942.19;;;17.01;91.42
13705;BME280;6924;52.122;9.952;2022-09-09T08:03:39;99934.88;;;17.03;93.02
13705;BME280;6924;52.122;9.952;2022-09-09T08:06:08;99933.59;;;17.01;93.16
13705;BME280;6924;52.122;9.952;2022-09-09T08:08:35;99936.63;;;17.08;92.21
13705;BME280;6924;52.122;9.952;2022-09-09T08:11:06;99946.22;;;17.00;91.91
13705;BME280;6924;52.122;9.952;2022-09-09T08:13:34;99942.63;;;17.03;92.51
13705;BME280;6924;52.122;9.952;2022-09-09T08:16:06;99941.88;;;17.06;92.94
13705;BME280;6924;52.122;9.952;2022-09-09T08:18:33;99935.78;;;17.07;92.49
13705;BME280;6924;52.122;9.952;2022-09-09T08:21:08;99949.25;;;17.07;92.30
13705;BME280;6924;52.122;9.952;2022-09-09T08:23:37;99943.59;;;17.10;92.64
13705;BME280;6924;52.122;9.952;2022-09-09T08:26:08;99938.94;;;17.02;91.74
13705;BME280;6924;52.122;9.952;2022-09-09T08:28:48;99933.16;;;16.99;92.03
13705;BME280;6924;52.122;9.952;2022-09-09T08:31:19;99934.38;;;16.98;92.29
13705;BME280;6924;52.122;9.952;2022-09-09T08:33:46;99943.75;;;16.98;92.32
13705;BME280;6924;52.122;9.952;2022-09-09T08:36:15;99939.47;;;17.08;92.18
13705;BME280;6924;52.122;9.952;2022-09-09T08:38:43;99938.34;;;17.12;92.17
13705;BME280;6924;52.122;9.952;2022-09-09T08:41:31;99938.56;;;17.23;92.21
13705;BME280;6924;52.122;9.952;2022-09-09T08:44:06;99932.28;;;17.33;91.29
13705;BME280;6924;52.122;9.952;2022-09-09T08:46:39;99933.31;;;17.45;90.83
13705;BME280;6924;52.122;9.952;2022-09-09T08:49:20;99940.28;;;17.67;89.58
13705;BME280;6924;52.122;9.952;2022-09-09T08:51:50;99944.34;;;17.85;88.30
13705;BME280;6924;52.122;9.952;2022-09-09T08:54:17;99957.47;;;18.09;87.97
13705;BME280;6924;52.122;9.952;2022-09-09T08:56:45;99960.59;;;18.24;87.64
13705;BME280;6924;52.122;9.952;2022-09-09T08:59:16;99956.34;;;18.37;89.33
13705;BME280;6924;52.122;9.952;2022-09-09T09:01:55;99955.69;;;18.47;86.56
13705;BME280;6924;52.122;9.952;2022-09-09T09:04:37;99952.50;;;18.52;84.66
13705;BME280;6924;52.122;9.952;2022-09-09T09:07:14;99960.31;;;18.55;83.66
13705;BME280;6924;52.122;9.952;2022-09-09T09:09:46;99961.66;;;18.62;83.20
13705;BME280;6924;52.122;9.952;2022-09-09T09:12:21;99966.66;;;18.68;84.02
13705;BME280;6924;52.122;9.952;2022-09-09T09:14:48;99972.59;;;18.79;82.86
13705;BME280;6924;52.122;9.952;2022-09-09T09:17:18;99962.47;;;18.85;82.09
13705;BME280;6924;52.122;9.952;2022-09-09T09:19:46;99955.31;;;18.98;82.36
13705;BME280;6924;52.122;9.952;2022-09-09T09:22:17;99953.44;;;19.13;81.39
13705;BME280;6924;52.122;9.952;2022-09-09T09:24:50;99956.91;;;19.26;80.85
13705;BME280;6924;52.122;9.952;2022-09-09T09:27:25;99953.81;;;19.38;81.72
13705;BME280;6924;52.122;9.952;2022-09-09T09:29:54;99952.34;;;19.55;81.02
13705;BME280;6924;52.122;9.952;2022-09-09T09:32:24;99949.31;;;19.71;79.55
13705;BME280;6924;52.122;9.952;2022-09-09T09:34:54;99950.41;;;19.97;79.45
13705;BME280;6924;52.122;9.952;2022-09-09T09:37:26;99951.34;;;20.08;77.93
13705;BME280;6924;52.122;9.952;2022-09-09T09:39:54;99949.06;;;20.28;76.20
13705;BME280;6924;52.122;9.952;2022-09-09T09:42:22;99950.41;;;20.41;75.32
13705;BME280;6924;52.122;9.952;2022-09-09T09:44:48;99942.31;;;20.51;74.58
13705;BME280;6924;52.122;9.952;2022-09-09T09:47:17;99946.13;;;20.62;72.60
13705;BME280;6924;52.122;9.952;2022-09-09T09:49:53;99943.69;;;20.64;72.85
13705;BME280;6924;52.122;9.952;2022-09-09T09:52:22;99948.19;;;20.61;71.08
13705;BME280;6924;52.122;9.952;2022-09-09T09:54:49;99941.19;;;20.62;72.29
13705;BME280;6924;52.122;9.952;2022-09-09T09:57:17;99949.00;;;20.62;72.01
13705;BME280;6924;52.122;9.952;2022-09-09T09:59:45;99933.81;;;20.65;71.97
13705;BME280;6924;52.122;9.952;2022-09-09T10:02:15;99933.44;;;20.70;72.15
13705;BME280;6924;52.122;9.952;2022-09-09T10:04:41;99932.63;;;20.66;69.16
13705;BME280;6924;52.122;9.952;2022-09-09T10:07:10;99918.94;;;20.56;68.93
13705;BME280;6924;52.122;9.952;2022-09-09T10:09:37;99928.75;;;20.51;70.05
13705;BME280;6924;52.122;9.952;2022-09-09T10:12:10;99938.16;;;20.44;69.90
13705;BME280;6924;52.122;9.952;2022-09-09T10:14:49;99935.28;;;20.48;70.85
13705;BME280;6924;52.122;9.952;2022-09-09T10:17:24;99940.59;;;20.42;70.16
13705;BME280;6924;52.122;9.952;2022-09-09T10:20:04;99937.66;;;20.35;70.48
13705;BME280;6924;52.122;9.952;2022-09-09T10:22:44;99938.53;;;20.39;70.99
13705;BME280;6924;52.122;9.952;2022-09-09T10:25:31;99933.78;;;20.58;72.63
13705;BME280;6924;52.122;9.952;2022-09-09T10:28:25;99931.44;;;20.78;70.15
13705;BME280;6924;52.122;9.952;2022-09-09T10:31:08;99922.97;;;21.03;69.45
13705;BME280;6924;52.122;9.952;2022-09-09T10:33:45;99925.19;;;21.28;68.55
13705;BME280;6924;52.122;9.952;2022-09-09T10:36:19;99911.75;;;21.50;67.83
13705;BME280;6924;52.122;9.952;2022-09-09T10:38:48;99913.84;;;21.71;65.96
13705;BME280;6924;52.122;9.952;2022-09-09T10:41:21;99906.91;;;21.90;64.77
13705;BME280;6924;52.122;9.952;2022-09-09T10:44:13;99915.16;;;22.09;63.67
13705;BME280;6924;52.122;9.952;2022-09-09T10:46:51;99908.22;;;22.32;64.51
13705;BME280;6924;52.122;9.952;2022-09-09T10:49:42;99908.63;;;22.55;66.67
13705;BME280;6924;52.122;9.952;2022-09-09T10:52:18;99903.69;;;22.63;63.03
13705;BME280;6924;52.122;9.952;2022-09-09T10:54:55;99908.63;;;22.48;61.97
13705;BME280;6924;52.122;9.952;2022-09-09T10:57:27;99907.38;;;22.42;62.18
13705;BME280;6924;52.122;9.952;2022-09-09T10:59:59;99909.06;;;22.36;62.09
13705;BME280;6924;52.122;9.952;2022-09-09T11:02:30;99902.88;;;22.34;64.92
13705;BME280;6924;52.122;9.952;2022-09-09T11:05:01;99902.41;;;22.10;62.85
13705;BME280;6924;52.122;9.952;2022-09-09T11:07:33;99892.13;;;22.13;64.65
13705;BME280;6924;52.122;9.952;2022-09-09T11:10:04;99893.75;;;22.06;63.92
13705;BME280;6924;52.122;9.952;2022-09-09T11:12:34;99888.44;;;22.05;63.93
13705;BME280;6924;52.122;9.952;2022-09-09T11:15:06;99894.19;;;21.94;62.74
13705;BME280;6924;52.122;9.952;2022-09-09T11:17:40;99906.50;;;22.02;62.75
13705;BME280;6924;52.122;9.952;2022-09-09T11:20:11;99911.88;;;21.96;61.95
13705;BME280;6924;52.122;9.952;2022-09-09T11:22:43;99919.25;;;21.94;61.47
13705;BME280;6924;52.122;9.952;2022-09-09T11:25:15;99918.44;;;21.90;62.08
13705;BME280;6924;52.122;9.952;2022-09-09T11:27:52;99916.72;;;21.67;62.66
13705;BME280;6924;52.122;9.952;2022-09-09T11:30:26;99920.41;;;21.57;63.82
13705;BME280;6924;52.122;9.952;2022-09-09T11:33:08;99924.88;;;21.47;65.82
13705;BME280;6924;52.122;9.952;2022-09-09T11:35:47;99928.97;;;21.42;66.50
13705;BME280;6924;52.122;9.952;2022-09-09T11:38:23;99925.63;;;21.37;66.82
13705;BME280;6924;52.122;9.952;2022-09-09T11:40:56;99935.44;;;21.29;66.37
13705;BME280;6924;52.122;9.952;2022-09-09T11:43:28;99927.13;;;21.05;69.32
13705;BME280;6924;52.122;9.952;2022-09-09T11:45:58;99930.00;;;21.05;69.36
13705;BME280;6924;52.122;9.952;2022-09-09T11:48:33;99930.31;;;20.93;69.29
13705;BME280;6924;52.122;9.952;2022-09-09T11:51:03;99922.84;;;20.78;75.24
13705;BME280;6924;52.122;9.952;2022-09-09T11:53:30;99936.34;;;20.74;74.33
13705;BME280;6924;52.122;9.952;2022-09-09T11:56:06;99957.28;;;20.71;78.10
13705;BME280;6924;52.122;9.952;2022-09-09T11:58:37;99954.31;;;20.15;86.32
13705;BME280;6924;52.122;9.952;2022-09-09T12:01:33;99938.66;;;19.72;84.73
13705;BME280;6924;52.122;9.952;2022-09-09T12:06:58;99934.09;;;19.07;94.76
13705;BME280;6924;52.122;9.952;2022-09-09T12:09:39;99936.78;;;18.92;94.07
13705;BME280;6924;52.122;9.952;2022-09-09T12:12:26;99929.44;;;18.95;93.20
13705;BME280;6924;52.122;9.952;2022-09-09T12:15:03;99938.53;;;19.01;93.50
13705;BME280;6924;52.122;9.952;2022-09-09T12:17:44;99924.09;;;18.93;95.50
13705;BME280;6924;52.122;9.952;2022-09-09T12:20:14;99924.97;;;18.97;94.81
13705;BME280;6924;52.122;9.952;2022-09-09T12:22:51;99927.94;;;19.05;95.70
13705;BME280;6924;52.122;9.952;2022-09-09T12:25:28;99916.59;;;19.12;96.27
13705;BME280;6924;52.122;9.952;2022-09-09T12:28:03;99909.69;;;19.16;97.63
13705;BME280;6924;52.122;9.952;2022-09-09T12:30:34;99921.25;;;19.24;97.95
13705;BME280;6924;52.122;9.952;2022-09-09T12:33:06;99915.16;;;19.29;97.58
13705;BME280;6924;52.122;9.952;2022-09-09T12:35:36;99910.28;;;19.29;97.61
13705;BME280;6924;52.122;9.952;2022-09-09T12:38:05;99925.50;;;19.37;97.38
13705;BME280;6924;52.122;9.952;2022-09-09T12:40:36;99923.91;;;19.39;97.64
13705;BME280;6924;52.122;9.952;2022-09-09T12:43:19;99921.47;;;19.41;96.76
13705;BME280;6924;52.122;9.952;2022-09-09T12:45:48;99921.91;;;19.44;97.48
13705;BME280;6924;52.122;9.952;2022-09-09T12:48:24;99912.91;;;19.45;97.19
13705;BME280;6924;52.122;9.952;2022-09-09T12:50:54;99920.25;;;19.43;96.67
13705;BME280;6924;52.122;9.952;2022-09-09T12:53:24;99935.84;;;19.45;97.00
13705;BME280;6924;52.122;9.952;2022-09-09T12:55:54;99951.41;;;19.44;97.38
13705;BME280;6924;52.122;9.952;2022-09-09T12:58:22;99952.56;;;19.39;97.66
13705;BME280;6924;52.122;9.952;2022-09-09T13:00:51;99955.84;;;19.38;97.51
13705;BME280;6924;52.122;9.952;2022-09-09T13:03:19;99939.72;;;18.73;79.07
13705;BME280;6924;52.122;9.952;2022-09-09T13:05:46;99937.66;;;18.70;81.69
13705;BME280;6924;52.122;9.952;2022-09-09T13:08:16;99926.47;;;18.61;82.90
13705;BME280;6924;52.122;9.952;2022-09-09T13:10:47;99923.88;;;18.52;86.03
13705;BME280;6924;52.122;9.952;2022-09-09T13:13:17;99939.00;;;18.53;87.27
13705;BME280;6924;52.122;9.952;2022-09-09T13:15:50;99941.44;;;18.51;89.27
13705;BME280;6924;52.122;9.952;2022-09-09T13:18:21;99941.06;;;18.52;92.57
13705;BME280;6924;52.122;9.952;2022-09-09T13:20:49;99936.63;;;18.58;94.53
13705;BME280;6924;52.122;9.952;2022-09-09T13:23:19;99933.81;;;18.62;95.67
13705;BME280;6924;52.122;9.952;2022-09-09T13:25:54;99917.47;;;18.63;96.68
13705;BME280;6924;52.122;9.952;2022-09-09T13:28:22;99920.91;;;18.72;97.83
13705;BME280;6924;52.122;9.952;2022-09-09T13:30:56;99913.44;;;18.67;99.61
13705;BME280;6924;52.122;9.952;2022-09-09T13:33:31;99903.75;;;18.75;100.00